Tampa, Florida
Traffic Map
Current Weather Conditions
Tampa, Florida
Broken Clouds
Broken Clouds
89°
Feels Like: 90°
Wind Chill: 89° Ceiling: 4800
Heat Index: 90° Visibility: 10mi
Dew Point: 63° Wind: 10mph
Humidity: 42% Direction: 130° (SE)
Pressure: 30.25in Gusts: 17mph
Raw Report DataKTPA 201953Z 13009G15KT 100V170 10SM BKN048 32/17 A3025 RMK AO2 SLP244 T03170172
Traffic Incident Summary
Active as of:
Severity:
Category:
InformationThere was an issue retrieving the traffic information for this location. Please try a different location or try again shortly.
Advertisements